createdAt,value
2023-03-30T00:04:00.578Z,65.53
2023-03-30T00:09:06.200Z,66.50
2023-03-30T00:14:07.890Z,64.27
2023-03-30T00:19:09.557Z,62.03
2023-03-30T00:24:14.259Z,57.83
2023-03-30T00:29:15.965Z,64.03
2023-03-30T00:34:17.689Z,61.10
2023-03-30T00:39:26.698Z,60.77
2023-03-30T00:45:07.860Z,66.83
2023-03-30T00:50:10.261Z,66.57
2023-03-30T00:55:12.658Z,66.63
2023-03-30T01:00:19.399Z,65.67
2023-03-30T01:05:44.805Z,70.57
2023-03-30T01:10:49.043Z,67.17
2023-03-30T01:16:43.324Z,59.17
2023-03-30T01:21:55.631Z,62.83
2023-03-30T01:27:08.644Z,62.27
2023-03-30T01:32:41.902Z,61.80
2023-03-30T01:37:56.108Z,65.57
2023-03-30T01:43:11.560Z,62.53
2023-03-30T01:48:23.760Z,59.63
2023-03-30T01:53:32.974Z,49.27
2023-03-30T01:58:39.514Z,49.77
2023-03-30T02:03:49.864Z,55.43
2023-03-30T02:08:54.939Z,51.97
2023-03-30T02:14:02.276Z,48.03
2023-03-30T02:19:06.731Z,50.93
2023-03-30T02:24:17.901Z,46.17
2023-03-30T02:29:21.190Z,48.23
2023-03-30T02:34:44.652Z,49.63
2023-03-30T02:39:59.126Z,44.40
2023-03-30T02:45:26.066Z,45.60
2023-03-30T02:50:50.185Z,50.07
2023-03-30T02:56:16.504Z,43.90
2023-03-30T03:01:34.160Z,45.53
2023-03-30T03:06:42.778Z,45.77
2023-03-30T03:11:47.202Z,42.63
2023-03-30T03:16:48.968Z,42.03
2023-03-30T03:21:57.744Z,39.20
2023-03-30T03:27:02.970Z,42.50
2023-03-30T03:32:11.838Z,35.40
2023-03-30T03:37:18.609Z,35.80
2023-03-30T03:42:23.385Z,29.10
2023-03-30T03:47:38.189Z,29.83
2023-03-30T03:52:42.400Z,27.27
2023-03-30T03:57:48.602Z,26.50
2023-03-30T04:02:50.857Z,26.47
2023-03-30T04:07:56.839Z,23.57
2023-03-30T04:12:58.764Z,19.80
2023-03-30T04:18:31.456Z,22.03
2023-03-30T04:23:52.015Z,21.67
2023-03-30T04:28:53.834Z,20.53
2023-03-30T04:34:21.953Z,19.87
2023-03-30T04:39:23.941Z,21.10
2023-03-30T04:44:37.038Z,17.70
2023-03-30T04:49:53.117Z,19.70
2023-03-30T04:55:26.611Z,15.77
2023-03-30T05:00:42.557Z,12.93
2023-03-30T05:06:21.795Z,10.70
2023-03-30T05:11:34.041Z,13.63
2023-03-30T05:16:56.091Z,10.87
2023-03-30T05:22:32.708Z,18.97
2023-03-30T05:27:52.900Z,13.47
2023-03-30T05:33:05.194Z,14.30
2023-03-30T05:38:25.415Z,10.97
2023-03-30T05:43:53.254Z,12.73
2023-03-30T05:49:09.731Z,11.83
2023-03-30T05:54:19.139Z,10.20
2023-03-30T05:59:25.644Z,7.20
2023-03-30T06:04:47.663Z,12.37
2023-03-30T06:09:51.393Z,13.20
2023-03-30T06:15:05.139Z,10.98
2023-03-30T06:20:26.906Z,10.75
2023-03-30T06:25:29.676Z,11.43
2023-03-30T06:30:33.854Z,12.50
2023-03-30T06:35:39.490Z,6.63
2023-03-30T06:40:43.999Z,8.52
2023-03-30T06:45:53.104Z,9.00
2023-03-30T06:50:58.011Z,9.60
2023-03-30T06:56:06.920Z,14.10
2023-03-30T07:01:16.007Z,10.63
2023-03-30T07:06:46.571Z,14.68
2023-03-30T07:11:48.946Z,10.88
2023-03-30T07:16:53.596Z,8.35
2023-03-30T07:21:56.115Z,11.40
2023-03-30T07:27:04.315Z,9.55
2023-03-30T07:32:07.203Z,10.32
2023-03-30T07:37:09.739Z,18.00
2023-03-30T07:42:14.278Z,9.50
2023-03-30T07:47:17.269Z,13.13
2023-03-30T07:52:19.852Z,10.70
2023-03-30T07:57:30.080Z,11.77
2023-03-30T08:02:32.797Z,9.98
2023-03-30T08:07:38.144Z,6.40
2023-03-30T08:12:47.540Z,12.30
2023-03-30T08:17:49.326Z,6.50
2023-03-30T08:22:51.615Z,8.27
2023-03-30T08:27:56.381Z,10.25
2023-03-30T08:32:58.646Z,14.45
2023-03-30T08:38:02.889Z,10.25
2023-03-30T08:43:25.826Z,12.20
2023-03-30T08:48:30.558Z,10.77
2023-03-30T08:53:33.444Z,12.68
2023-03-30T08:59:00.982Z,13.88
2023-03-30T09:04:32.185Z,8.73
2023-03-30T09:09:43.050Z,12.70
2023-03-30T09:14:51.753Z,10.32
2023-03-30T09:20:29.473Z,11.85
2023-03-30T09:26:09.837Z,9.10
2023-03-30T09:31:21.799Z,16.17
2023-03-30T09:37:10.023Z,14.40
2023-03-30T09:42:21.206Z,12.10
2023-03-30T09:47:37.153Z,20.52
2023-03-30T09:52:41.803Z,21.45
2023-03-30T09:57:45.906Z,20.73
2023-03-30T10:02:57.832Z,16.90
2023-03-30T10:08:05.802Z,9.80
2023-03-30T10:13:17.158Z,19.67
2023-03-30T10:18:19.476Z,16.48
2023-03-30T10:23:24.349Z,16.85
2023-03-30T10:28:27.264Z,17.20
2023-03-30T10:33:30.401Z,17.42
2023-03-30T10:38:37.737Z,18.35
2023-03-30T10:43:39.775Z,21.98
2023-03-30T10:49:11.894Z,22.83
2023-03-30T10:54:37.639Z,20.63
2023-03-30T10:59:45.845Z,21.73
2023-03-30T11:05:04.953Z,25.08
2023-03-30T11:10:32.443Z,14.68
2023-03-30T11:15:52.108Z,17.42
2023-03-30T11:21:19.847Z,20.73
2023-03-30T11:26:27.614Z,15.07
2023-03-30T11:31:40.310Z,12.52
2023-03-30T11:36:55.725Z,19.23
2023-03-30T11:42:02.663Z,14.05
2023-03-30T11:47:53.211Z,17.42
2023-03-30T11:53:12.736Z,13.57
2023-03-30T11:58:38.955Z,15.73
2023-03-30T12:03:49.837Z,12.93
2023-03-30T12:09:10.797Z,13.35
2023-03-30T12:14:27.708Z,13.90
2023-03-30T12:19:42.619Z,12.57
2023-03-30T12:25:12.537Z,14.18
2023-03-30T12:30:23.484Z,9.27
2023-03-30T12:35:51.056Z,12.50
2023-03-30T12:40:55.924Z,14.27
2023-03-30T12:46:06.303Z,17.33
2023-03-30T12:51:14.666Z,18.42
2023-03-30T12:56:42.381Z,22.17
2023-03-30T13:02:08.972Z,19.00
2023-03-30T13:07:16.878Z,21.80
2023-03-30T13:12:29.584Z,21.85
2023-03-30T13:17:57.462Z,16.20
2023-03-30T13:23:13.620Z,21.52
2023-03-30T13:28:36.349Z,23.33
2023-03-30T13:33:41.377Z,29.70
2023-03-30T13:39:14.397Z,25.77
2023-03-30T13:44:37.610Z,20.50
2023-03-30T13:49:59.029Z,22.25
2023-03-30T13:55:04.909Z,17.65
2023-03-30T14:00:25.082Z,20.02
2023-03-30T14:05:27.888Z,22.08
2023-03-30T14:10:29.607Z,17.33
2023-03-30T14:15:39.239Z,23.02
2023-03-30T14:20:46.923Z,22.77
2023-03-30T14:25:48.747Z,14.05
2023-03-30T14:30:56.685Z,22.05
2023-03-30T14:36:00.354Z,17.88
2023-03-30T14:41:02.234Z,20.80
2023-03-30T14:46:09.185Z,22.90
2023-03-30T14:51:34.296Z,28.33
2023-03-30T14:56:36.907Z,20.38
2023-03-30T15:01:38.763Z,19.77
2023-03-30T15:06:41.522Z,14.77
2023-03-30T15:11:49.144Z,11.80
2023-03-30T15:16:53.851Z,18.40
2023-03-30T15:21:58.900Z,17.05
2023-03-30T15:27:06.052Z,21.27
2023-03-30T15:32:09.998Z,19.80
2023-03-30T15:37:22.768Z,15.60
2023-03-30T15:42:29.608Z,15.73
2023-03-30T15:47:36.758Z,18.92
2023-03-30T15:52:42.986Z,18.10
2023-03-30T15:57:49.227Z,23.38
2023-03-30T16:03:02.087Z,20.27
2023-03-30T16:08:05.635Z,28.13
2023-03-30T16:13:11.094Z,23.88
2023-03-30T16:18:16.608Z,24.23
2023-03-30T16:23:21.082Z,16.88
2023-03-30T16:28:27.377Z,23.10
2023-03-30T16:33:29.658Z,19.83
2023-03-30T16:38:31.756Z,25.92
2023-03-30T16:43:35.765Z,24.52
2023-03-30T16:48:40.715Z,27.92
2023-03-30T16:53:43.754Z,30.98
2023-03-30T16:58:46.646Z,27.05
2023-03-30T17:03:52.960Z,23.05
2023-03-30T17:08:55.535Z,29.73
2023-03-30T17:14:01.768Z,24.50
2023-03-30T17:19:12.514Z,21.85
2023-03-30T17:24:17.282Z,21.58
2023-03-30T17:29:18.935Z,29.52
2023-03-30T17:34:20.907Z,29.88
2023-03-30T17:39:27.516Z,25.27
2023-03-30T17:44:33.975Z,26.55
2023-03-30T17:49:37.998Z,32.50
2023-03-30T17:54:43.002Z,31.98
2023-03-30T17:59:47.426Z,24.35
2023-03-30T18:04:53.858Z,37.72
2023-03-30T18:09:57.848Z,37.20
2023-03-30T18:14:59.523Z,38.20
2023-03-30T18:20:20.014Z,36.50
2023-03-30T18:25:32.116Z,36.03
2023-03-30T18:30:38.306Z,35.95
2023-03-30T18:35:40.243Z,40.67
2023-03-30T18:40:49.341Z,40.97
2023-03-30T18:45:51.520Z,27.58
2023-03-30T18:50:57.366Z,36.25
2023-03-30T18:56:04.203Z,38.47
2023-03-30T19:01:06.864Z,32.03
2023-03-30T19:06:19.646Z,35.38
2023-03-30T19:11:26.156Z,49.90
2023-03-30T19:16:30.399Z,41.58
2023-03-30T19:21:35.387Z,39.90
2023-03-30T19:26:39.306Z,44.90
2023-03-30T19:31:48.472Z,45.33
2023-03-30T19:36:54.830Z,51.25
2023-03-30T19:41:56.579Z,47.43
2023-03-30T19:47:03.545Z,54.20
2023-03-30T19:52:08.271Z,44.95
2023-03-30T19:57:10.271Z,54.30
2023-03-30T20:02:15.015Z,55.90
2023-03-30T20:07:17.125Z,63.25
2023-03-30T20:12:21.398Z,75.00
2023-03-30T20:17:23.122Z,61.70
2023-03-30T20:22:26.984Z,56.47
2023-03-30T20:27:35.619Z,64.07
2023-03-30T20:32:39.821Z,59.00
2023-03-30T20:37:44.357Z,66.13
2023-03-30T20:42:49.704Z,55.07
2023-03-30T20:47:54.017Z,47.27
2023-03-30T20:52:58.860Z,53.03
2023-03-30T20:58:03.544Z,49.20
2023-03-30T21:03:07.751Z,54.20
2023-03-30T21:08:09.795Z,49.10
2023-03-30T21:13:18.721Z,45.75
2023-03-30T21:18:23.480Z,52.40
2023-03-30T21:23:26.568Z,35.03
2023-03-30T21:28:28.657Z,53.77
2023-03-30T21:33:30.599Z,42.83
2023-03-30T21:38:39.281Z,40.87
2023-03-30T21:43:44.194Z,40.03
2023-03-30T21:48:51.808Z,35.13
2023-03-30T21:53:58.226Z,38.33
2023-03-30T21:59:07.010Z,30.00
2023-03-30T22:04:08.768Z,44.50
2023-03-30T22:09:13.831Z,49.93
2023-03-30T22:14:15.687Z,46.17
2023-03-30T22:19:22.745Z,27.00
2023-03-30T22:24:29.273Z,40.00
2023-03-30T22:29:33.446Z,38.17
2023-03-30T22:34:37.746Z,36.33
2023-03-30T22:39:44.795Z,30.83
2023-03-30T22:44:46.928Z,29.75
2023-03-30T22:49:53.708Z,31.73
2023-03-30T22:55:00.387Z,35.87
2023-03-30T23:00:11.934Z,28.87
2023-03-30T23:05:16.148Z,33.67
2023-03-30T23:10:22.317Z,33.17
2023-03-30T23:15:26.823Z,28.93
2023-03-30T23:20:30.997Z,30.93
2023-03-30T23:25:32.760Z,33.27
2023-03-30T23:30:42.061Z,28.87
2023-03-30T23:35:51.003Z,29.17
2023-03-30T23:40:59.443Z,32.17
2023-03-30T23:46:06.155Z,27.23
2023-03-30T23:51:10.854Z,24.87
2023-03-30T23:56:17.024Z,31.37
